Time;durP1;ratioP1;P1;durP2;ratioP2;P2;SDS_P1;SDS_P2;PMS_P1;PMS_P2;Temp;Humidity;BMP_temperature;BMP_pressure;BME280_temperature;BME280_humidity;BME280_pressure;Samples;Min_cycle;Max_cycle;Signal;HPM_P1;HPM_P2
2022/04/07 00:02:16;;;;;;;6.68;1.60;;;;;;;7.75;100.00;99168.28;5011078;28;20085;-86
2022/04/07 00:04:42;;;;;;;7.63;1.40;;;;;;;7.72;100.00;99169.63;5026290;28;20014;-86
2022/04/07 00:07:07;;;;;;;3.20;1.23;;;;;;;7.71;100.00;99160.03;5019928;28;20112;-86
2022/04/07 00:09:32;;;;;;;7.27;1.20;;;;;;;7.70;100.00;99158.44;5010286;28;20030;-85
2022/04/07 00:11:58;;;;;;;6.37;1.30;;;;;;;7.69;100.00;99148.06;5009675;28;20092;-86
2022/04/07 00:14:23;;;;;;;5.00;1.53;;;;;;;7.65;100.00;99155.84;5011607;28;20026;-86
2022/04/07 00:16:48;;;;;;;4.65;1.48;;;;;;;7.67;100.00;99139.56;5010533;28;20029;-86
2022/04/07 00:19:14;;;;;;;5.20;1.27;;;;;;;7.62;100.00;99135.06;5009766;28;20116;-86
2022/04/07 00:21:41;;;;;;;5.27;1.57;;;;;;;7.62;100.00;99131.59;5009588;28;20026;-86
2022/04/07 00:24:07;;;;;;;12.95;1.55;;;;;;;7.61;100.00;99130.81;5011058;28;20053;-86
2022/04/07 00:26:33;;;;;;;8.60;1.30;;;;;;;7.66;100.00;99137.97;5010546;28;20037;-86
2022/04/07 00:28:59;;;;;;;3.88;1.13;;;;;;;7.71;100.00;99128.03;5009579;28;20041;-86
2022/04/07 00:31:25;;;;;;;9.43;1.37;;;;;;;7.77;100.00;99122.66;5011013;28;20018;-86
2022/04/07 00:33:51;;;;;;;8.43;1.52;;;;;;;7.82;100.00;99117.31;5008841;28;20495;-86
2022/04/07 00:36:16;;;;;;;6.38;1.45;;;;;;;7.82;100.00;99106.63;5010046;28;20029;-86
2022/04/07 00:38:42;;;;;;;7.87;1.50;;;;;;;7.81;100.00;99097.03;5009464;28;20053;-85
2022/04/07 00:41:07;;;;;;;8.93;1.33;;;;;;;7.79;100.00;99083.97;5011110;28;20026;-85
2022/04/07 00:43:34;;;;;;;11.03;1.47;;;;;;;7.75;100.00;99088.31;5009077;28;20022;-85
2022/04/07 00:46:01;;;;;;;7.03;1.50;;;;;;;7.73;100.00;99083.22;5009384;28;20041;-86
2022/04/07 00:48:27;;;;;;;10.27;1.38;;;;;;;7.70;100.00;99067.78;5009562;28;20105;-86
2022/04/07 00:50:53;;;;;;;8.75;1.30;;;;;;;7.77;100.00;99074.69;5010025;28;20113;-86
2022/04/07 00:53:19;;;;;;;7.67;1.90;;;;;;;7.81;100.00;99065.81;5010068;28;20032;-86
2022/04/07 00:55:45;;;;;;;6.10;1.85;;;;;;;7.82;100.00;99061.31;5009934;28;20022;-86
2022/04/07 00:58:11;;;;;;;8.70;1.50;;;;;;;7.80;100.00;99058.91;5009799;28;20036;-86
2022/04/07 01:00:36;;;;;;;10.00;2.03;;;;;;;7.73;100.00;99053.91;5010004;28;20030;-86
2022/04/07 01:03:02;;;;;;;9.90;1.92;;;;;;;7.70;100.00;99054.47;5009064;28;20033;-86
2022/04/07 01:05:27;;;;;;;5.60;1.40;;;;;;;7.65;100.00;99051.88;5010902;28;20029;-86
2022/04/07 01:07:53;;;;;;;8.17;1.93;;;;;;;7.66;100.00;99048.13;5011639;28;20101;-87
2022/04/07 01:10:20;;;;;;;6.28;1.73;;;;;;;7.66;100.00;99044.66;5014035;28;20033;-86
2022/04/07 01:12:45;;;;;;;7.82;1.48;;;;;;;7.59;100.00;99042.31;5009535;28;20030;-86
2022/04/07 01:15:11;;;;;;;6.80;2.00;;;;;;;7.59;100.00;99039.66;5010831;28;20053;-86
2022/04/07 01:17:38;;;;;;;4.28;1.67;;;;;;;7.56;100.00;99032.22;5015776;28;20053;-85
2022/04/07 01:20:05;;;;;;;6.17;1.80;;;;;;;7.51;100.00;99035.72;5009473;28;20438;-87
2022/04/07 01:22:33;;;;;;;8.93;2.00;;;;;;;7.54;100.00;99029.84;5009084;28;21091;-86
2022/04/07 01:24:58;;;;;;;8.27;1.73;;;;;;;7.55;100.00;99026.09;5010728;28;20436;-86
2022/04/07 01:27:24;;;;;;;8.83;1.87;;;;;;;7.56;100.00;99021.56;5007869;28;20745;-85
2022/04/07 01:29:52;;;;;;;8.98;2.17;;;;;;;7.57;100.00;99009.81;5009448;28;20022;-86
2022/04/07 01:32:28;;;;;;;8.63;1.92;;;;;;;7.63;100.00;99000.69;5008636;28;20393;-86
2022/04/07 01:34:53;;;;;;;6.95;1.70;;;;;;;7.69;100.00;99004.88;5009380;28;20088;-86
2022/04/07 01:37:19;;;;;;;8.50;1.50;;;;;;;7.70;100.00;98995.81;5009379;28;20030;-86
2022/04/07 01:39:46;;;;;;;8.70;1.93;;;;;;;7.72;100.00;98982.22;5008542;28;20318;-85
2022/04/07 01:42:14;;;;;;;8.25;1.90;;;;;;;7.81;100.00;98982.38;5008422;28;20431;-86
2022/04/07 01:44:44;;;;;;;9.07;1.73;;;;;;;7.83;100.00;98977.56;5010459;28;20420;-86
2022/04/07 01:47:12;;;;;;;8.13;1.45;;;;;;;7.81;100.00;98972.50;5012583;28;20025;-86
2022/04/07 01:49:40;;;;;;;7.00;1.42;;;;;;;7.80;100.00;98959.47;5009151;28;20483;-86
2022/04/07 01:52:07;;;;;;;9.65;1.55;;;;;;;7.80;100.00;98956.78;5009091;28;20076;-87
2022/04/07 01:54:34;;;;;;;9.63;1.63;;;;;;;7.75;100.00;98952.31;5007514;28;20049;-87
2022/04/07 01:56:59;;;;;;;6.67;1.40;;;;;;;7.79;100.00;98947.19;5008742;28;20072;-87
2022/04/07 01:59:26;;;;;;;4.60;1.40;;;;;;;7.84;100.00;98949.81;5009020;28;20391;-86
2022/04/07 02:01:51;;;;;;;6.15;1.50;;;;;;;7.87;100.00;98946.56;5008006;28;20540;-86
2022/04/07 02:04:16;;;;;;;6.57;1.43;;;;;;;7.91;100.00;98944.91;5009836;28;20030;-87
2022/04/07 02:06:42;;;;;;;8.70;1.70;;;;;;;7.95;100.00;98948.59;5008402;28;20038;-86
2022/04/07 02:09:07;;;;;;;10.00;1.40;;;;;;;7.94;100.00;98936.34;5008550;28;20101;-86
2022/04/07 02:11:32;;;;;;;6.90;1.50;;;;;;;7.93;100.00;98948.09;5009497;28;20125;-86
2022/04/07 02:13:58;;;;;;;6.87;1.60;;;;;;;7.89;100.00;98939.06;5008941;28;20069;-86
2022/04/07 02:16:23;;;;;;;5.50;1.50;;;;;;;7.87;100.00;98939.38;5008531;28;20049;-86
2022/04/07 02:18:48;;;;;;;11.90;1.60;;;;;;;7.84;100.00;98925.81;5007117;28;20724;-86
2022/04/07 02:21:14;;;;;;;11.33;2.03;;;;;;;7.77;100.00;98915.47;5011982;28;20037;-86
2022/04/07 02:23:42;;;;;;;11.10;1.83;;;;;;;7.71;100.00;98917.41;5009361;28;20049;-87
2022/04/07 02:26:12;;;;;;;12.18;1.73;;;;;;;7.73;100.00;98917.94;5009679;28;20105;-87
2022/04/07 02:28:38;;;;;;;8.93;2.13;;;;;;;7.81;100.00;98911.16;5010740;28;20511;-86
2022/04/07 02:31:03;;;;;;;8.25;1.70;;;;;;;7.92;100.00;98909.16;5011795;28;20030;-86
2022/04/07 02:33:28;;;;;;;9.63;1.47;;;;;;;7.96;100.00;98912.84;5011983;28;20038;-86
2022/04/07 02:35:54;;;;;;;9.67;2.07;;;;;;;7.98;100.00;98913.38;5011677;28;20022;-86
2022/04/07 02:38:19;;;;;;;9.37;1.83;;;;;;;8.04;100.00;98906.84;5012339;28;20030;-87
2022/04/07 02:40:44;;;;;;;8.73;1.40;;;;;;;8.06;100.00;98897.78;5011041;28;20029;-86
2022/04/07 02:43:09;;;;;;;10.25;1.20;;;;;;;8.02;100.00;98898.38;5012855;28;20586;-86
2022/04/07 02:45:35;;;;;;;8.37;1.60;;;;;;;8.01;100.00;98888.78;5010555;28;20018;-86
2022/04/07 02:48:00;;;;;;;10.30;1.97;;;;;;;7.98;100.00;98884.03;5012138;28;20124;-86
2022/04/07 02:50:25;;;;;;;9.90;1.67;;;;;;;8.02;100.00;98901.03;5012010;28;20034;-87
2022/04/07 02:52:51;;;;;;;7.13;1.60;;;;;;;7.97;100.00;98887.78;5011383;28;20034;-87
2022/04/07 02:55:16;;;;;;;11.57;1.93;;;;;;;7.98;100.00;98865.34;5010942;28;20022;-86
2022/04/07 02:57:41;;;;;;;9.33;1.67;;;;;;;7.96;100.00;98866.69;5008680;28;20026;-86
2022/04/07 03:00:07;;;;;;;9.87;1.83;;;;;;;7.98;100.00;98857.34;5010338;28;20296;-86
2022/04/07 03:02:33;;;;;;;7.55;1.58;;;;;;;7.97;100.00;98858.44;5011494;28;20556;-86
2022/04/07 03:04:58;;;;;;;11.87;2.17;;;;;;;8.03;100.00;98843.13;5011515;28;20113;-86
2022/04/07 03:07:23;;;;;;;6.50;1.70;;;;;;;8.10;100.00;98843.59;5008979;28;20037;-86
2022/04/07 03:09:48;;;;;;;7.93;2.10;;;;;;;8.15;100.00;98842.69;5011472;28;20555;-86
2022/04/07 03:12:14;;;;;;;6.03;1.50;;;;;;;8.19;99.53;98819.69;5011944;28;20029;-86
2022/04/07 03:14:40;;;;;;;9.23;1.60;;;;;;;8.24;98.58;98808.94;5011736;28;20048;-86
2022/04/07 03:17:06;;;;;;;6.78;1.30;;;;;;;8.27;98.37;98807.56;5011041;28;20029;-88
2022/04/07 03:19:32;;;;;;;12.25;1.90;;;;;;;8.27;97.94;98795.00;5011735;28;20057;-87
2022/04/07 03:21:57;;;;;;;11.95;1.65;;;;;;;8.30;97.42;98807.78;5012170;28;20025;-86
2022/04/07 03:24:24;;;;;;;8.27;1.37;;;;;;;8.36;97.04;98805.03;5011851;28;20030;-86
2022/04/07 03:26:50;;;;;;;12.23;1.85;;;;;;;8.30;97.14;98783.75;5011287;28;20693;-86
2022/04/07 03:29:15;;;;;;;7.57;1.60;;;;;;;8.30;97.14;98778.41;5012190;28;20044;-86
2022/04/07 03:31:41;;;;;;;10.03;1.90;;;;;;;8.33;95.79;98782.38;5026297;28;20284;-84
2022/04/07 03:34:06;;;;;;;13.03;2.23;;;;;;;8.39;95.95;98764.41;5019887;28;20077;-86
2022/04/07 03:36:31;;;;;;;7.43;2.00;;;;;;;8.43;94.85;98768.06;5015012;28;20037;-86
2022/04/07 03:38:56;;;;;;;11.30;1.73;;;;;;;8.42;94.77;98779.81;5010685;28;20038;-86
2022/04/07 03:41:22;;;;;;;11.50;1.63;;;;;;;8.42;95.06;98759.28;5011531;28;20026;-86
2022/04/07 03:43:47;;;;;;;13.57;1.57;;;;;;;8.43;94.43;98778.75;5010250;28;20606;-91
2022/04/07 03:46:16;;;;;;;13.37;1.50;;;;;;;8.39;94.78;98767.09;5011263;28;20118;-91
2022/04/07 03:48:41;;;;;;;9.13;1.70;;;;;;;8.43;94.34;98746.72;5009555;28;20516;-89
2022/04/07 03:51:06;;;;;;;9.23;1.80;;;;;;;8.45;94.19;98755.22;5010599;28;20030;-90
2022/04/07 03:53:31;;;;;;;11.07;2.07;;;;;;;8.45;94.21;98757.88;5010924;28;20045;-89
2022/04/07 03:55:57;;;;;;;18.67;1.73;;;;;;;8.43;94.73;98755.53;5010258;28;20060;-89
2022/04/07 03:58:22;;;;;;;8.07;1.57;;;;;;;8.42;94.47;98740.59;5012615;28;20034;-89
2022/04/07 04:00:47;;;;;;;9.47;1.50;;;;;;;8.41;94.35;98739.00;5012291;28;20017;-89
2022/04/07 04:03:13;;;;;;;12.90;1.80;;;;;;;8.42;94.00;98734.44;5017136;28;20030;-90
2022/04/07 04:05:38;;;;;;;10.93;1.38;;;;;;;8.38;94.51;98723.59;5009919;28;20034;-89
2022/04/07 04:08:04;;;;;;;9.37;1.40;;;;;;;8.36;94.79;98706.28;5011034;28;20029;-88
2022/04/07 04:10:29;;;;;;;12.63;1.95;;;;;;;8.33;94.45;98700.44;5011299;28;20366;-87
2022/04/07 04:12:55;;;;;;;6.70;1.47;;;;;;;8.34;94.65;98695.91;5010107;28;20516;-86
2022/04/07 04:15:20;;;;;;;8.23;1.13;;;;;;;8.29;95.25;98685.34;5010107;28;20118;-89
2022/04/07 04:17:45;;;;;;;7.13;1.73;;;;;;;8.28;94.86;98681.84;5007656;28;20120;-88
2022/04/07 04:20:11;;;;;;;7.17;1.20;;;;;;;8.33;94.22;98659.63;5008780;28;20041;-90
2022/04/07 04:22:37;;;;;;;5.13;1.00;;;;;;;8.32;94.01;98650.84;4991222;28;20282;-91
2022/04/07 04:25:03;;;;;;;11.73;1.50;;;;;;;8.37;93.44;98646.50;4991272;28;20389;-92
2022/04/07 04:27:28;;;;;;;7.78;1.50;;;;;;;8.42;93.14;98620.50;4993755;28;20064;-91
2022/04/07 04:29:54;;;;;;;6.60;1.37;;;;;;;8.38;93.32;98619.50;5010684;28;20049;-91
2022/04/07 04:32:19;;;;;;;6.77;1.10;;;;;;;8.38;93.69;98624.84;5009418;28;20293;-89
2022/04/07 04:34:44;;;;;;;8.47;1.40;;;;;;;8.39;93.43;98626.41;5011372;28;20026;-93
2022/04/07 04:37:09;;;;;;;6.10;0.97;;;;;;;8.43;92.83;98610.59;5009875;28;20026;-93
2022/04/07 04:39:35;;;;;;;4.10;0.90;;;;;;;8.48;92.30;98599.84;5010132;28;20026;-89
2022/04/07 04:42:00;;;;;;;4.37;0.90;;;;;;;8.51;92.85;98606.47;5008813;28;20036;-91
2022/04/07 04:44:25;;;;;;;6.20;1.30;;;;;;;8.53;92.47;98593.63;5011229;28;20058;-92
2022/04/07 04:46:51;;;;;;;5.30;1.08;;;;;;;8.53;93.97;98599.75;5009283;28;20140;-92
2022/04/07 04:49:17;;;;;;;5.20;0.83;;;;;;;8.48;94.60;98599.84;5018128;28;20021;-92
2022/04/07 04:51:42;;;;;;;4.75;0.95;;;;;;;8.43;95.57;98591.91;5029507;28;20025;-89
2022/04/07 04:54:07;;;;;;;4.53;1.03;;;;;;;8.41;96.73;98597.56;5010860;28;20037;-89
2022/04/07 04:56:33;;;;;;;5.23;0.90;;;;;;;8.36;97.88;98583.53;5010168;28;20021;-90
2022/04/07 04:58:58;;;;;;;6.10;0.90;;;;;;;8.31;98.61;98582.53;5008374;28;20030;-91
2022/04/07 05:01:24;;;;;;;1.85;0.70;;;;;;;8.29;99.85;98578.59;5006929;28;20041;-92
2022/04/07 05:03:50;;;;;;;3.13;0.93;;;;;;;8.27;100.00;98562.88;5011481;28;20026;-96
2022/04/07 05:06:15;;;;;;;4.50;0.80;;;;;;;8.21;100.00;98553.41;5010789;28;20036;-92
2022/04/07 05:08:40;;;;;;;2.90;0.70;;;;;;;8.19;100.00;98543.03;5011427;28;20033;-94
2022/04/07 05:11:07;;;;;;;1.92;0.77;;;;;;;8.16;100.00;98527.59;5013334;28;20470;-91
2022/04/07 05:13:32;;;;;;;4.43;1.00;;;;;;;8.16;100.00;98540.94;5009884;28;20037;-91
2022/04/07 05:15:57;;;;;;;5.03;1.17;;;;;;;8.17;100.00;98533.75;5013446;28;20026;-96
2022/04/07 05:18:23;;;;;;;1.80;0.95;;;;;;;8.21;100.00;98532.06;5016897;28;20041;-95
2022/04/07 05:20:48;;;;;;;4.83;1.30;;;;;;;8.13;100.00;98517.53;5016062;28;20136;-96
2022/04/07 05:23:13;;;;;;;5.07;1.13;;;;;;;8.24;100.00;98544.00;5016056;28;20033;-95
2022/04/07 05:25:39;;;;;;;4.30;1.13;;;;;;;8.28;100.00;98516.44;5018585;28;20504;-95
2022/04/07 05:28:04;;;;;;;2.27;1.00;;;;;;;8.32;100.00;98498.75;5014009;28;20034;-95
2022/04/07 05:30:29;;;;;;;5.70;1.02;;;;;;;8.30;100.00;98484.91;5017689;28;20030;-94
2022/04/07 05:32:55;;;;;;;3.77;1.07;;;;;;;8.31;100.00;98475.00;5013201;28;20026;-94
2022/04/07 05:35:20;;;;;;;3.07;1.63;;;;;;;8.31;100.00;98469.66;5015446;28;20132;-92
2022/04/07 05:37:46;;;;;;;4.37;1.37;;;;;;;8.28;100.00;98462.28;5021966;28;20022;-94
2022/04/07 05:40:13;;;;;;;3.20;1.35;;;;;;;8.22;100.00;98466.16;5011568;28;20484;-94
2022/04/07 05:42:38;;;;;;;2.80;1.30;;;;;;;8.16;100.00;98481.47;5010960;28;20045;-93
2022/04/07 05:45:05;;;;;;;4.50;1.97;;;;;;;8.07;100.00;98464.59;5011075;28;20304;-92
2022/04/07 05:47:30;;;;;;;7.82;1.77;;;;;;;7.96;100.00;98456.00;5010344;28;20479;-90
2022/04/07 05:49:56;;;;;;;2.80;1.60;;;;;;;7.87;100.00;98443.38;5010222;28;20029;-90
2022/04/07 05:52:21;;;;;;;4.03;2.20;;;;;;;7.81;100.00;98441.91;5010311;28;20072;-90
2022/04/07 05:54:47;;;;;;;4.73;2.00;;;;;;;7.76;100.00;98430.56;5012020;28;20018;-92
2022/04/07 05:57:12;;;;;;;6.05;2.38;;;;;;;7.75;100.00;98431.63;5009700;28;20508;-91
2022/04/07 05:59:38;;;;;;;7.47;2.40;;;;;;;7.71;100.00;98410.13;5008469;28;20042;-91
2022/04/07 06:02:03;;;;;;;5.90;2.20;;;;;;;7.70;100.00;98382.66;5005878;28;20018;-93
2022/04/07 06:04:29;;;;;;;5.78;2.35;;;;;;;7.69;100.00;98397.06;5021007;28;20037;-92
2022/04/07 06:06:54;;;;;;;8.23;2.90;;;;;;;7.65;100.00;98382.78;5014734;28;20492;-90
2022/04/07 06:09:19;;;;;;;6.33;2.47;;;;;;;7.61;100.00;98370.34;5014728;28;20033;-91
2022/04/07 06:11:45;;;;;;;6.80;2.83;;;;;;;7.63;100.00;98392.94;5012267;28;20057;-91
2022/04/07 06:14:10;;;;;;;6.77;2.40;;;;;;;7.60;100.00;98380.22;5015491;28;20022;-92
2022/04/07 06:16:35;;;;;;;10.82;2.35;;;;;;;7.55;100.00;98374.97;5024018;28;20053;-94
2022/04/07 06:19:00;;;;;;;8.83;2.53;;;;;;;7.54;100.00;98366.22;5019610;28;20103;-92
2022/04/07 06:21:29;;;;;;;7.43;2.70;;;;;;;7.53;100.00;98359.31;5026010;28;20056;-91
2022/04/07 06:23:55;;;;;;;5.78;2.08;;;;;;;7.51;100.00;98350.00;5025473;28;20049;-92
2022/04/07 06:26:20;;;;;;;9.53;2.50;;;;;;;7.54;100.00;98344.88;5018336;28;20033;-94
2022/04/07 06:28:46;;;;;;;8.20;2.43;;;;;;;7.58;100.00;98345.84;5010203;28;20058;-93
2022/04/07 06:31:11;;;;;;;5.32;1.63;;;;;;;7.55;100.00;98324.34;5016191;28;20036;-93
2022/04/07 06:33:37;;;;;;;6.70;1.73;;;;;;;7.55;100.00;98317.16;5019696;28;20041;-94
2022/04/07 06:36:03;;;;;;;7.95;1.92;;;;;;;7.58;100.00;98326.41;5018423;28;20088;-96
2022/04/07 06:38:30;;;;;;;10.00;2.00;;;;;;;7.56;100.00;98312.59;5017307;28;20489;-90
2022/04/07 06:40:56;;;;;;;8.52;1.50;;;;;;;7.58;100.00;98292.53;5021526;28;20045;-91
2022/04/07 06:43:22;;;;;;;4.00;1.27;;;;;;;7.55;100.00;98295.84;5015584;28;20542;-93
2022/04/07 06:45:47;;;;;;;5.93;1.40;;;;;;;7.55;100.00;98287.03;5012693;28;20033;-92
2022/04/07 06:48:13;;;;;;;4.63;1.40;;;;;;;7.54;100.00;98285.47;5015655;28;20422;-89
2022/04/07 06:50:38;;;;;;;6.17;1.37;;;;;;;7.53;100.00;98270.56;5016602;28;20026;-92
2022/04/07 06:53:04;;;;;;;10.40;1.57;;;;;;;7.62;100.00;98262.63;5020748;28;20022;-89
2022/04/07 06:55:29;;;;;;;9.23;1.30;;;;;;;7.67;100.00;98271.31;5019053;28;20022;-88
2022/04/07 06:58:06;;;;;;;8.27;1.60;;;;;;;7.67;100.00;98255.31;5030576;28;20041;-89
2022/04/07 07:00:33;;;;;;;7.85;1.70;;;;;;;7.65;100.00;98254.84;5018888;28;20388;-89
2022/04/07 07:03:01;;;;;;;7.53;1.10;;;;;;;7.63;100.00;98232.22;5012368;28;20021;-92
2022/04/07 07:05:29;;;;;;;8.67;1.30;;;;;;;7.63;100.00;98222.38;5019824;28;20069;-93
2022/04/07 07:07:54;;;;;;;9.33;1.30;;;;;;;7.60;100.00;98196.31;5023989;28;20293;-93
2022/04/07 07:10:25;;;;;;;6.25;1.40;;;;;;;7.58;100.00;98198.50;5026563;28;20156;-93
2022/04/07 07:12:51;;;;;;;6.93;1.70;;;;;;;7.61;100.00;98195.22;5034483;28;20068;-93
2022/04/07 07:15:17;;;;;;;8.90;1.20;;;;;;;7.56;100.00;98198.00;5043021;28;20017;-92
2022/04/07 07:17:43;;;;;;;6.60;1.50;;;;;;;7.53;100.00;98180.75;5037900;28;20336;-90
2022/04/07 07:20:10;;;;;;;7.07;1.63;;;;;;;7.56;100.00;98168.69;5017978;28;20065;-89
2022/04/07 07:22:36;;;;;;;6.15;1.40;;;;;;;7.53;100.00;98166.63;5016998;28;20030;-89
2022/04/07 07:25:02;;;;;;;6.63;1.50;;;;;;;7.53;100.00;98155.97;5019270;28;20052;-92
2022/04/07 07:27:28;;;;;;;9.55;1.58;;;;;;;7.55;100.00;98153.78;5016447;28;20030;-92
2022/04/07 07:29:53;;;;;;;3.23;1.57;;;;;;;7.61;100.00;98139.25;5016424;28;20026;-94
2022/04/07 07:32:18;;;;;;;5.80;1.67;;;;;;;7.62;100.00;98122.19;5015945;28;20026;-90
2022/04/07 07:34:43;;;;;;;6.57;1.53;;;;;;;7.68;100.00;98114.84;5016689;28;20022;-91
2022/04/07 07:37:09;;;;;;;7.73;1.73;;;;;;;7.84;100.00;98099.25;5017527;28;20030;-91
2022/04/07 07:39:34;;;;;;;5.85;1.80;;;;;;;7.91;100.00;98088.16;5009232;28;20022;-91
2022/04/07 07:41:59;;;;;;;6.83;1.50;;;;;;;7.94;100.00;98082.22;5021510;28;20026;-92
2022/04/07 07:44:28;;;;;;;5.87;1.60;;;;;;;7.91;100.00;98090.81;5009460;28;20050;-91
2022/04/07 07:46:53;;;;;;;3.25;1.60;;;;;;;7.92;100.00;98116.38;4993131;28;20465;-92
2022/04/07 07:49:19;;;;;;;2.93;1.80;;;;;;;7.97;100.00;98143.72;5011124;28;20042;-89
2022/04/07 07:51:45;;;;;;;5.53;1.93;;;;;;;7.96;100.00;98238.13;5021070;28;20041;-92
2022/04/07 07:54:10;;;;;;;27.60;0.88;;;;;;;7.35;100.00;98286.38;5014839;28;20041;-93
2022/04/07 07:56:36;;;;;;;6.80;0.40;;;;;;;6.55;100.00;98312.41;5019076;28;20496;-96
2022/04/07 07:59:01;;;;;;;1.93;0.40;;;;;;;6.25;100.00;98314.47;5018266;28;20093;-94
2022/04/07 08:01:26;;;;;;;3.15;0.40;;;;;;;6.08;100.00;98288.41;5020161;28;20098;-96
2022/04/07 08:03:52;;;;;;;3.57;0.40;;;;;;;6.00;100.00;98276.56;5025758;28;20044;-96
2022/04/07 08:06:17;;;;;;;11.40;0.63;;;;;;;5.92;100.00;98272.69;5025273;28;20022;-96
2022/04/07 08:08:43;;;;;;;3.00;0.50;;;;;;;5.88;100.00;98280.41;5020999;28;20057;-96
2022/04/07 08:18:56;;;;;;;2.63;0.85;;;;;;;5.70;100.00;98241.34;5099214;23;20053;-96
2022/04/07 08:21:24;;;;;;;4.05;0.88;;;;;;;5.81;100.00;98240.16;5034540;28;20101;-96
2022/04/07 08:23:50;;;;;;;4.45;0.82;;;;;;;5.98;100.00;98241.47;5029436;28;20079;-96
2022/04/07 08:26:18;;;;;;;2.33;0.90;;;;;;;6.18;100.00;98241.19;5025275;28;20082;-96
2022/04/07 08:29:03;;;;;;;3.92;0.90;;;;;;;6.49;100.00;98266.44;5013081;28;20494;-96
2022/04/07 08:31:31;;;;;;;5.57;1.05;;;;;;;6.56;100.00;98242.13;5006066;28;20026;-96
2022/04/07 08:33:57;;;;;;;4.05;1.00;;;;;;;6.63;100.00;98229.22;5001602;28;20030;-94
2022/04/07 08:36:22;;;;;;;5.33;0.70;;;;;;;6.81;100.00;98238.19;5012781;28;20021;-94
2022/04/07 08:38:47;;;;;;;1.50;0.63;;;;;;;6.84;100.00;98234.16;5018259;28;20026;-93
2022/04/07 08:41:13;;;;;;;4.50;0.80;;;;;;;7.21;100.00;98253.66;5020354;28;20284;-96
2022/04/07 08:43:40;;;;;;;4.57;0.77;;;;;;;7.45;100.00;98255.28;5032683;28;20029;-92
2022/04/07 08:46:13;;;;;;;3.25;0.40;;;;;;;7.51;100.00;98244.22;5030646;28;20020;-94
2022/04/07 08:48:43;;;;;;;3.60;0.73;;;;;;;7.59;100.00;98234.72;5029885;28;20481;-94
2022/04/07 08:51:11;;;;;;;2.93;0.50;;;;;;;7.64;100.00;98239.13;5028181;28;20053;-94
2022/04/07 08:53:39;;;;;;;3.60;0.90;;;;;;;7.66;100.00;98232.44;5017396;28;20293;-96
2022/04/07 08:56:06;;;;;;;6.35;0.65;;;;;;;7.70;100.00;98236.06;5014304;28;20060;-96
2022/04/07 08:58:32;;;;;;;7.22;0.93;;;;;;;7.73;100.00;98240.78;5012139;28;20038;-96
2022/04/07 09:00:59;;;;;;;8.25;1.25;;;;;;;7.97;100.00;98242.38;5010323;28;20033;-96
2022/04/07 09:03:24;;;;;;;2.97;1.00;;;;;;;8.00;100.00;98236.44;4993290;28;20045;-94
2022/04/07 09:05:58;;;;;;;3.73;1.43;;;;;;;8.07;100.00;98233.34;5005335;28;20029;-95
2022/04/07 09:08:30;;;;;;;7.25;1.77;;;;;;;8.30;100.00;98239.44;5006798;28;20080;-96
2022/04/07 09:10:57;;;;;;;4.93;1.60;;;;;;;8.53;100.00;98239.41;5015045;28;20017;-93
2022/04/07 09:13:23;;;;;;;8.25;1.63;;;;;;;8.60;100.00;98246.97;5012548;28;20117;-94
2022/04/07 09:15:49;;;;;;;5.40;1.60;;;;;;;8.58;100.00;98241.94;5011784;28;20167;-94
2022/04/07 09:18:25;;;;;;;2.42;1.20;;;;;;;8.32;100.00;98234.56;5011886;28;20030;-92
2022/04/07 09:20:51;;;;;;;6.40;1.40;;;;;;;8.17;100.00;98241.06;5010958;28;20168;-94
2022/04/07 09:23:19;;;;;;;7.93;1.63;;;;;;;8.24;100.00;98235.31;5014142;28;20037;-95
2022/04/07 09:25:49;;;;;;;4.70;1.80;;;;;;;8.46;100.00;98244.38;5022120;28;20038;-92
2022/04/07 09:28:44;;;;;;;5.85;2.00;;;;;;;8.70;100.00;98256.59;5025464;28;20052;-94
2022/04/07 09:31:13;;;;;;;10.17;2.63;;;;;;;8.89;100.00;98237.66;5012978;28;20092;-96
2022/04/07 09:33:39;;;;;;;4.97;2.60;;;;;;;9.12;100.00;98233.03;5013698;28;20289;-93
2022/04/07 09:36:11;;;;;;;7.82;3.03;;;;;;;9.36;100.00;98250.50;5015862;28;20025;-96
2022/04/07 09:38:44;;;;;;;7.13;3.00;;;;;;;9.52;100.00;98262.28;5028519;28;20029;-94
2022/04/07 09:41:12;;;;;;;6.45;2.85;;;;;;;9.61;100.00;98256.19;5021030;28;20041;-93
2022/04/07 09:43:49;;;;;;;3.90;2.13;;;;;;;9.69;100.00;98266.06;5018464;28;20026;-88
2022/04/07 09:46:17;;;;;;;5.37;2.80;;;;;;;9.77;100.00;98275.22;5019385;28;20030;-93
2022/04/07 09:48:58;;;;;;;5.00;1.47;;;;;;;9.92;100.00;98269.41;5018231;28;20284;-96
2022/04/07 09:51:24;;;;;;;3.22;1.40;;;;;;;9.72;100.00;98270.78;4996536;28;20026;-95
2022/04/07 09:53:54;;;;;;;3.47;1.45;;;;;;;9.57;100.00;98261.38;4997795;28;20072;-94
2022/04/07 09:56:20;;;;;;;5.55;1.33;;;;;;;9.47;100.00;98259.00;5010402;28;20037;-93
2022/04/07 09:58:46;;;;;;;3.33;1.27;;;;;;;9.41;99.36;98250.34;5023160;28;20021;-93
2022/04/07 10:01:13;;;;;;;4.55;1.50;;;;;;;9.45;96.95;98243.28;5031402;28;20022;-96
2022/04/07 10:03:38;;;;;;;5.72;1.50;;;;;;;9.50;98.56;98228.97;5033914;28;20090;-93
2022/04/07 10:06:06;;;;;;;4.40;1.47;;;;;;;9.46;94.80;98239.50;5035170;28;20013;-94
2022/04/07 10:08:32;;;;;;;4.32;1.00;;;;;;;9.33;93.25;98259.94;5033867;28;20021;-95
2022/04/07 10:10:58;;;;;;;6.07;1.10;;;;;;;9.13;92.71;98255.94;5032457;28;20029;-96
2022/04/07 10:13:25;;;;;;;3.22;1.20;;;;;;;9.03;93.85;98266.91;5028254;28;20121;-96
2022/04/07 10:15:51;;;;;;;9.27;1.90;;;;;;;9.03;95.71;98264.25;5031598;28;20022;-95
2022/04/07 10:18:27;;;;;;;5.87;1.50;;;;;;;8.95;95.10;98265.81;5032926;28;20324;-94
2022/04/07 10:20:57;;;;;;;8.77;1.85;;;;;;;9.27;92.30;98273.75;5036286;28;20017;-94
2022/04/07 10:23:52;;;;;;;8.77;1.40;;;;;;;9.74;91.09;98276.63;5028043;28;20053;-96
2022/04/07 10:26:19;;;;;;;5.60;1.15;;;;;;;10.32;85.10;98268.38;5018528;28;20046;-95
2022/04/07 10:28:55;;;;;;;5.90;1.00;;;;;;;10.48;82.93;98265.22;5023254;28;20010;-96
2022/04/07 10:31:22;;;;;;;3.80;0.95;;;;;;;10.41;80.02;98287.13;5021495;28;20116;-96
2022/04/07 10:33:48;;;;;;;8.07;1.13;;;;;;;10.40;80.72;98288.25;5024529;28;20025;-95
2022/04/07 10:36:20;;;;;;;6.87;1.30;;;;;;;10.47;80.03;98301.94;5020435;28;20412;-96
2022/04/07 10:38:48;;;;;;;6.55;1.15;;;;;;;10.39;80.48;98294.69;5013447;28;20026;-96
2022/04/07 10:41:37;;;;;;;10.80;1.02;;;;;;;10.20;83.04;98301.16;5018771;28;20611;-96
2022/04/07 10:44:07;;;;;;;7.70;1.02;;;;;;;9.99;80.99;98293.00;5014544;28;20037;-95
2022/04/07 10:46:33;;;;;;;8.43;1.30;;;;;;;9.87;81.73;98308.88;5022645;28;20030;-96
2022/04/07 10:49:07;;;;;;;8.47;1.30;;;;;;;9.84;81.00;98312.97;5018774;28;20029;-96
2022/04/07 10:51:52;;;;;;;6.60;1.10;;;;;;;9.91;79.82;98317.84;5030097;28;20033;-94
2022/04/07 10:54:17;;;;;;;6.03;0.98;;;;;;;9.97;78.08;98322.72;5001941;28;20034;-95
2022/04/07 10:56:47;;;;;;;12.57;1.10;;;;;;;10.00;77.60;98326.66;5019307;28;20029;-95
2022/04/07 10:59:25;;;;;;;8.00;1.08;;;;;;;10.16;76.77;98326.97;5013567;28;20432;-95
2022/04/07 11:01:52;;;;;;;8.27;1.00;;;;;;;10.54;76.34;98322.88;5017753;28;20022;-95
2022/04/07 11:04:24;;;;;;;8.98;1.00;;;;;;;10.85;77.68;98343.25;5019717;28;20026;-95
2022/04/07 11:07:20;;;;;;;8.38;1.10;;;;;;;11.04;76.26;98332.94;5025585;28;20037;-96
2022/04/07 11:09:53;;;;;;;8.93;1.25;;;;;;;10.88;72.55;98342.63;5021635;28;20028;-96
2022/04/07 11:12:46;;;;;;;8.50;1.10;;;;;;;10.83;75.54;98356.97;5027341;28;20022;-95
2022/04/07 11:15:11;;;;;;;10.50;1.27;;;;;;;11.27;76.61;98364.84;5020156;28;20045;-94
2022/04/07 11:17:43;;;;;;;5.53;1.00;;;;;;;11.70;73.35;98383.72;5023063;28;20289;-94
2022/04/07 11:20:28;;;;;;;6.30;0.80;;;;;;;11.76;72.22;98361.75;5023585;28;20038;-95
2022/04/07 11:23:12;;;;;;;7.13;1.02;;;;;;;11.62;68.66;98385.34;5027911;28;20030;-96
2022/04/07 11:25:46;;;;;;;10.73;1.25;;;;;;;11.47;70.44;98392.06;5029267;28;20586;-96
2022/04/07 11:28:27;;;;;;;8.90;1.42;;;;;;;11.62;69.91;98394.19;5034784;28;20050;-96
2022/04/07 11:30:58;;;;;;;6.93;1.25;;;;;;;11.94;69.54;98391.94;5034092;28;20048;-96
2022/04/07 11:33:26;;;;;;;8.35;1.20;;;;;;;12.04;66.74;98396.16;5026509;28;20026;-95
2022/04/07 11:36:00;;;;;;;6.93;1.00;;;;;;;11.75;66.05;98424.56;5018364;28;20462;-96
2022/04/07 11:38:26;;;;;;;8.20;1.27;;;;;;;11.43;65.26;98410.66;5009136;28;20026;-96
2022/04/07 11:41:02;;;;;;;8.85;1.13;;;;;;;11.38;67.73;98416.22;5007946;28;20030;-95
2022/04/07 11:43:28;;;;;;;10.53;1.30;;;;;;;11.40;68.10;98432.78;5008363;28;20018;-96